createdAt,value
2019-01-27T00:00:05.065Z,3.50
2019-01-27T00:01:05.594Z,3.50
2019-01-27T00:02:05.224Z,3.50
2019-01-27T00:03:05.762Z,3.50
2019-01-27T00:04:05.869Z,3.50
2019-01-27T00:05:05.567Z,3.50
2019-01-27T00:06:05.516Z,3.50
2019-01-27T00:07:05.760Z,3.50
2019-01-27T00:08:05.867Z,3.50
2019-01-27T00:09:05.069Z,3.50
2019-01-27T00:10:05.146Z,3.50
2019-01-27T00:11:05.131Z,3.50
2019-01-27T00:12:05.314Z,3.50
2019-01-27T00:13:05.390Z,3.50
2019-01-27T00:14:06.286Z,3.50
2019-01-27T00:15:05.618Z,3.50
2019-01-27T00:16:05.729Z,3.50
2019-01-27T00:17:05.729Z,3.50
2019-01-27T00:18:05.915Z,3.50
2019-01-27T00:19:05.136Z,3.50
2019-01-27T00:20:05.248Z,3.50
2019-01-27T00:21:05.378Z,3.50
2019-01-27T00:22:05.469Z,3.50
2019-01-27T00:23:05.929Z,3.50
2019-01-27T00:24:06.044Z,3.50
2019-01-27T00:25:05.131Z,3.50
2019-01-27T00:26:05.280Z,3.50
2019-01-27T00:27:05.603Z,3.50
2019-01-27T00:28:05.066Z,3.50
2019-01-27T00:29:05.377Z,3.50
2019-01-27T00:30:05.691Z,3.50
2019-01-27T00:31:05.932Z,3.56
2019-01-27T00:32:06.210Z,3.50
2019-01-27T00:33:05.121Z,3.56
2019-01-27T00:34:05.210Z,3.56
2019-01-27T00:35:05.434Z,3.56
2019-01-27T00:36:05.723Z,3.56
2019-01-27T00:37:05.786Z,3.56
2019-01-27T00:38:05.764Z,3.56
2019-01-27T00:39:05.948Z,3.56
2019-01-27T00:40:05.207Z,3.56
2019-01-27T00:41:05.351Z,3.56
2019-01-27T00:42:06.059Z,3.56
2019-01-27T00:43:05.539Z,3.56
2019-01-27T00:44:05.487Z,3.56
2019-01-27T00:45:06.012Z,3.56
2019-01-27T00:46:05.603Z,3.56
2019-01-27T00:47:06.003Z,3.56
2019-01-27T00:48:05.724Z,3.56
2019-01-27T00:49:05.704Z,3.56
2019-01-27T00:50:05.382Z,3.56
2019-01-27T00:51:05.774Z,3.56
2019-01-27T00:52:05.786Z,3.56
2019-01-27T00:53:05.480Z,3.56
2019-01-27T00:54:05.631Z,3.56
2019-01-27T00:55:05.689Z,3.56
2019-01-27T00:56:05.887Z,3.56
2019-01-27T00:57:06.031Z,3.56
2019-01-27T00:58:05.465Z,3.56
2019-01-27T00:59:05.786Z,3.62
2019-01-27T01:00:05.569Z,3.62
2019-01-27T01:01:06.571Z,3.62
2019-01-27T01:02:04.972Z,3.62
2019-01-27T01:03:05.038Z,3.62
2019-01-27T01:04:05.654Z,3.62
2019-01-27T01:05:05.141Z,3.69
2019-01-27T01:06:05.535Z,3.69
2019-01-27T01:07:05.706Z,3.69
2019-01-27T01:08:05.870Z,3.69
2019-01-27T01:09:05.222Z,3.69
2019-01-27T01:10:06.029Z,3.69
2019-01-27T01:11:05.142Z,3.69
2019-01-27T01:12:05.280Z,3.69
2019-01-27T01:13:05.605Z,3.69
2019-01-27T01:14:05.725Z,3.69
2019-01-27T01:15:05.680Z,3.69
2019-01-27T01:16:05.762Z,3.69
2019-01-27T01:17:06.106Z,3.62
2019-01-27T01:18:05.083Z,3.69
2019-01-27T01:19:05.117Z,3.69
2019-01-27T01:20:05.157Z,3.69
2019-01-27T01:21:05.192Z,3.69
2019-01-27T01:22:05.486Z,3.69
2019-01-27T01:23:05.390Z,3.69
2019-01-27T01:24:05.684Z,3.69
2019-01-27T01:25:05.622Z,3.69
2019-01-27T01:26:05.617Z,3.69
2019-01-27T01:27:06.030Z,3.69
2019-01-27T01:28:05.304Z,3.69
2019-01-27T01:29:05.790Z,3.69
2019-01-27T01:30:05.271Z,3.69
2019-01-27T01:31:05.545Z,3.69
2019-01-27T01:32:05.543Z,3.69
2019-01-27T01:33:05.226Z,3.69
2019-01-27T01:34:05.396Z,3.69
2019-01-27T01:35:05.700Z,3.62
2019-01-27T01:36:05.784Z,3.69
2019-01-27T01:37:05.787Z,3.69
2019-01-27T01:38:06.051Z,3.69
2019-01-27T01:39:05.049Z,3.69
2019-01-27T01:40:05.198Z,3.69
2019-01-27T01:41:05.464Z,3.69
2019-01-27T01:42:05.640Z,3.69
2019-01-27T01:43:05.552Z,3.69
2019-01-27T01:44:05.903Z,3.69
2019-01-27T01:45:05.916Z,3.62
2019-01-27T01:46:05.551Z,3.69
2019-01-27T01:47:05.631Z,3.69
2019-01-27T01:48:05.760Z,3.69
2019-01-27T01:49:05.932Z,3.69
2019-01-27T01:50:05.477Z,3.69
2019-01-27T01:51:05.757Z,3.69
2019-01-27T01:52:05.489Z,3.69
2019-01-27T01:53:05.538Z,3.69
2019-01-27T01:54:05.064Z,3.69
2019-01-27T01:55:07.533Z,3.69
2019-01-27T01:56:05.719Z,3.62
2019-01-27T01:57:05.772Z,3.62
2019-01-27T01:58:05.870Z,3.62
2019-01-27T01:59:05.470Z,3.62
2019-01-27T02:00:05.542Z,3.62
2019-01-27T02:01:05.133Z,3.62
2019-01-27T02:02:05.838Z,3.62
2019-01-27T02:03:05.036Z,3.62
2019-01-27T02:04:05.621Z,3.62
2019-01-27T02:05:05.851Z,3.62
2019-01-27T02:06:05.866Z,3.56
2019-01-27T02:07:05.939Z,3.56
2019-01-27T02:08:06.027Z,3.56
2019-01-27T02:09:05.135Z,3.56
2019-01-27T02:10:05.308Z,3.56
2019-01-27T02:11:05.366Z,3.56
2019-01-27T02:12:05.496Z,3.56
2019-01-27T02:13:05.519Z,3.56
2019-01-27T02:14:05.630Z,3.56
2019-01-27T02:15:05.827Z,3.56
2019-01-27T02:16:05.566Z,3.56
2019-01-27T02:17:06.003Z,3.56
2019-01-27T02:18:05.300Z,3.56
2019-01-27T02:19:05.766Z,3.56
2019-01-27T02:20:05.132Z,3.56
2019-01-27T02:21:05.357Z,3.56
2019-01-27T02:22:05.467Z,3.56
2019-01-27T02:23:05.530Z,3.56
2019-01-27T02:24:06.128Z,3.56
2019-01-27T02:25:05.221Z,3.56
2019-01-27T02:26:05.244Z,3.56
2019-01-27T02:27:05.692Z,3.62
2019-01-27T02:28:05.221Z,3.62
2019-01-27T02:29:05.762Z,3.62
2019-01-27T02:30:06.204Z,3.56
2019-01-27T02:31:05.228Z,3.56
2019-01-27T02:32:05.165Z,3.56
2019-01-27T02:33:05.445Z,3.56
2019-01-27T02:34:05.940Z,3.56
2019-01-27T02:35:05.515Z,3.56
2019-01-27T02:36:05.609Z,3.56
2019-01-27T02:37:05.944Z,3.56
2019-01-27T02:38:06.121Z,3.56
2019-01-27T02:39:05.946Z,3.62
2019-01-27T02:40:05.295Z,3.56
2019-01-27T02:41:05.937Z,3.56
2019-01-27T02:42:05.870Z,3.56
2019-01-27T02:43:05.207Z,3.56
2019-01-27T02:44:05.290Z,3.56
2019-01-27T02:45:05.624Z,3.56
2019-01-27T02:46:05.946Z,3.56
2019-01-27T02:47:05.834Z,3.56
2019-01-27T02:48:06.513Z,3.62
2019-01-27T02:49:05.537Z,3.56
2019-01-27T02:50:05.536Z,3.56
2019-01-27T02:51:05.963Z,3.56
2019-01-27T02:52:05.871Z,3.56
2019-01-27T02:53:05.853Z,3.56
2019-01-27T02:54:05.946Z,3.56
2019-01-27T02:55:05.602Z,3.56
2019-01-27T02:56:06.018Z,3.56
2019-01-27T02:57:05.386Z,3.56
2019-01-27T02:58:05.707Z,3.56
2019-01-27T02:59:05.227Z,3.56
2019-01-27T03:00:05.304Z,3.56
2019-01-27T03:01:05.445Z,3.56
2019-01-27T03:02:05.884Z,3.56
2019-01-27T03:03:05.847Z,3.56
2019-01-27T03:04:05.786Z,3.56
2019-01-27T03:05:05.205Z,3.56
2019-01-27T03:06:05.568Z,3.56
2019-01-27T03:07:05.768Z,3.56
2019-01-27T03:08:05.480Z,3.56
2019-01-27T03:09:05.549Z,3.56
2019-01-27T03:10:05.780Z,3.56
2019-01-27T03:11:05.192Z,3.56
2019-01-27T03:12:05.477Z,3.56
2019-01-27T03:13:05.389Z,3.56
2019-01-27T03:14:05.731Z,3.56
2019-01-27T03:15:05.687Z,3.56
2019-01-27T03:16:05.799Z,3.56
2019-01-27T03:17:05.543Z,3.56
2019-01-27T03:18:05.536Z,3.56
2019-01-27T03:19:06.003Z,3.56
2019-01-27T03:20:05.384Z,3.56
2019-01-27T03:21:05.874Z,3.56
2019-01-27T03:22:05.166Z,3.56
2019-01-27T03:23:05.618Z,3.56
2019-01-27T03:24:05.688Z,3.56
2019-01-27T03:25:06.007Z,3.56
2019-01-27T03:26:05.154Z,3.56
2019-01-27T03:27:05.678Z,3.56
2019-01-27T03:28:05.863Z,3.56
2019-01-27T03:29:05.837Z,3.56
2019-01-27T03:30:06.032Z,3.56
2019-01-27T03:31:05.141Z,3.56
2019-01-27T03:32:05.750Z,3.56
2019-01-27T03:33:05.850Z,3.62
2019-01-27T03:34:05.243Z,3.62
2019-01-27T03:35:05.376Z,3.56
2019-01-27T03:36:05.460Z,3.56
2019-01-27T03:37:05.926Z,3.62
2019-01-27T03:38:05.383Z,3.62
2019-01-27T03:39:05.036Z,3.62
2019-01-27T03:40:05.238Z,3.62
2019-01-27T03:41:05.382Z,3.69
2019-01-27T03:42:05.766Z,3.62
2019-01-27T03:43:05.046Z,3.62
2019-01-27T03:44:05.236Z,3.62
2019-01-27T03:45:05.311Z,3.62
2019-01-27T03:46:05.382Z,3.62
2019-01-27T03:47:06.016Z,3.62
2019-01-27T03:48:06.026Z,3.62
2019-01-27T03:49:05.706Z,3.69
2019-01-27T03:50:06.103Z,3.69
2019-01-27T03:51:05.468Z,3.69
2019-01-27T03:52:05.884Z,3.69
2019-01-27T03:53:05.876Z,3.69
2019-01-27T03:54:05.148Z,3.69
2019-01-27T03:55:05.610Z,3.69
2019-01-27T03:56:05.882Z,3.69
2019-01-27T03:57:06.033Z,3.69
2019-01-27T03:58:05.061Z,3.69
2019-01-27T03:59:05.539Z,3.69
2019-01-27T04:00:05.165Z,3.69
2019-01-27T04:01:05.210Z,3.69
2019-01-27T04:02:05.574Z,3.69
2019-01-27T04:03:05.542Z,3.69
2019-01-27T04:04:05.708Z,3.69
2019-01-27T04:05:05.789Z,3.69
2019-01-27T04:06:05.058Z,3.69
2019-01-27T04:07:05.389Z,3.69
2019-01-27T04:08:05.575Z,3.69
2019-01-27T04:09:05.453Z,3.69
2019-01-27T04:10:05.624Z,3.62
2019-01-27T04:11:05.708Z,3.69
2019-01-27T04:12:05.238Z,3.69
2019-01-27T04:13:05.303Z,3.69
2019-01-27T04:14:05.382Z,3.69
2019-01-27T04:15:05.472Z,3.69
2019-01-27T04:16:05.438Z,3.69
2019-01-27T04:17:05.055Z,3.69
2019-01-27T04:18:05.580Z,3.69
2019-01-27T04:19:05.521Z,3.69
2019-01-27T04:20:05.147Z,3.69
2019-01-27T04:21:05.630Z,3.69
2019-01-27T04:22:05.681Z,3.69
2019-01-27T04:23:05.132Z,3.69
2019-01-27T04:24:05.227Z,3.62
2019-01-27T04:25:05.871Z,3.62
2019-01-27T04:26:06.027Z,3.62
2019-01-27T04:27:05.119Z,3.62
2019-01-27T04:28:05.349Z,3.69
2019-01-27T04:29:05.448Z,3.69
2019-01-27T04:30:05.764Z,3.69
2019-01-27T04:31:05.980Z,3.69
2019-01-27T04:32:05.143Z,3.69
2019-01-27T04:33:05.314Z,3.69
2019-01-27T04:34:05.603Z,3.62
2019-01-27T04:35:05.998Z,3.69
2019-01-27T04:36:05.687Z,3.69
2019-01-27T04:37:06.006Z,3.69
2019-01-27T04:38:05.557Z,3.69
2019-01-27T04:39:05.536Z,3.69
2019-01-27T04:40:05.616Z,3.69
2019-01-27T04:41:05.078Z,3.69
2019-01-27T04:42:05.396Z,3.69
2019-01-27T04:43:05.450Z,3.69
2019-01-27T04:44:05.563Z,3.69
2019-01-27T04:45:06.025Z,3.69
2019-01-27T04:46:05.213Z,3.69
2019-01-27T04:47:05.629Z,3.69
2019-01-27T04:48:05.946Z,3.69
2019-01-27T04:49:05.688Z,3.69
2019-01-27T04:50:06.129Z,3.69
2019-01-27T04:51:05.239Z,3.69
2019-01-27T04:52:05.227Z,3.69
2019-01-27T04:53:05.790Z,3.69
2019-01-27T04:54:06.119Z,3.69
2019-01-27T04:55:05.128Z,3.69
2019-01-27T04:56:05.868Z,3.75
2019-01-27T04:57:05.356Z,3.75
2019-01-27T04:58:05.954Z,3.75
2019-01-27T04:59:05.684Z,3.75
2019-01-27T05:00:05.937Z,3.81
2019-01-27T05:01:05.253Z,3.81
2019-01-27T05:02:05.469Z,3.81
2019-01-27T05:03:05.155Z,3.81
2019-01-27T05:04:05.221Z,3.81
2019-01-27T05:05:05.936Z,3.81
2019-01-27T05:06:05.474Z,3.75
2019-01-27T05:07:05.946Z,3.75
2019-01-27T05:08:05.656Z,3.75
2019-01-27T05:09:05.528Z,3.75
2019-01-27T05:10:05.710Z,3.75
2019-01-27T05:11:05.150Z,3.75
2019-01-27T05:12:05.564Z,3.81
2019-01-27T05:13:05.633Z,3.81
2019-01-27T05:14:05.847Z,3.81
2019-01-27T05:15:05.119Z,3.81
2019-01-27T05:16:05.398Z,3.81
2019-01-27T05:17:05.773Z,3.81
2019-01-27T05:18:06.026Z,3.81
2019-01-27T05:19:05.443Z,3.81
2019-01-27T05:20:05.631Z,3.81
2019-01-27T05:21:05.121Z,3.81
2019-01-27T05:22:05.238Z,3.81
2019-01-27T05:23:05.702Z,3.88
2019-01-27T05:24:05.241Z,3.81
2019-01-27T05:25:06.009Z,3.88
2019-01-27T05:26:05.243Z,3.81
2019-01-27T05:27:05.294Z,3.81
2019-01-27T05:28:05.364Z,3.88
2019-01-27T05:29:05.946Z,3.88
2019-01-27T05:30:05.308Z,3.88
2019-01-27T05:31:05.780Z,3.81
2019-01-27T05:32:05.967Z,3.81
2019-01-27T05:33:06.053Z,3.81
2019-01-27T05:34:05.065Z,3.75
2019-01-27T05:35:05.785Z,3.75
2019-01-27T05:36:05.869Z,3.75
2019-01-27T05:37:05.936Z,3.75
2019-01-27T05:38:05.774Z,3.75
2019-01-27T05:39:05.214Z,3.75
2019-01-27T05:40:05.210Z,3.75
2019-01-27T05:41:05.394Z,3.75
2019-01-27T05:42:05.808Z,3.75
2019-01-27T05:43:05.931Z,3.75
2019-01-27T05:44:06.122Z,3.75
2019-01-27T05:45:05.061Z,3.75
2019-01-27T05:46:06.696Z,3.75
2019-01-27T05:47:06.589Z,3.75
2019-01-27T05:48:05.516Z,3.69
2019-01-27T05:49:05.759Z,3.69
2019-01-27T05:50:05.784Z,3.69
2019-01-27T05:51:05.283Z,3.75
2019-01-27T05:52:05.907Z,3.69
2019-01-27T05:53:05.879Z,3.75
2019-01-27T05:54:05.182Z,3.69
2019-01-27T05:55:05.128Z,3.69
2019-01-27T05:56:05.224Z,3.69
2019-01-27T05:57:05.912Z,3.69
2019-01-27T05:58:05.157Z,3.75
2019-01-27T05:59:05.228Z,3.75
2019-01-27T06:00:05.334Z,3.75
2019-01-27T06:01:06.826Z,3.75
2019-01-27T06:02:06.027Z,3.75
2019-01-27T06:03:05.635Z,3.75
2019-01-27T06:04:05.945Z,3.75
2019-01-27T06:05:05.994Z,3.75
2019-01-27T06:06:05.708Z,3.75
2019-01-27T06:07:05.718Z,3.75
2019-01-27T06:08:05.868Z,3.75
2019-01-27T06:09:05.374Z,3.75
2019-01-27T06:10:05.406Z,3.75
2019-01-27T06:11:05.364Z,3.75
2019-01-27T06:12:05.388Z,3.75
2019-01-27T06:13:05.592Z,3.75
2019-01-27T06:14:05.229Z,3.75
2019-01-27T06:15:06.424Z,3.75
2019-01-27T06:16:06.204Z,3.75
2019-01-27T06:17:05.149Z,3.75
2019-01-27T06:18:05.474Z,3.75
2019-01-27T06:19:06.005Z,3.75
2019-01-27T06:20:05.075Z,3.75
2019-01-27T06:21:05.755Z,3.75
2019-01-27T06:22:05.957Z,3.75
2019-01-27T06:23:05.452Z,3.75
2019-01-27T06:24:05.167Z,3.75
2019-01-27T06:25:05.239Z,3.75
2019-01-27T06:26:05.387Z,3.75
2019-01-27T06:27:05.763Z,3.75
2019-01-27T06:28:05.889Z,3.75
2019-01-27T06:29:05.152Z,3.75
2019-01-27T06:30:06.200Z,3.75
2019-01-27T06:31:05.768Z,3.75
2019-01-27T06:32:05.785Z,3.75
2019-01-27T06:33:07.146Z,3.75
2019-01-27T06:34:05.285Z,3.75
2019-01-27T06:35:05.465Z,3.75
2019-01-27T06:36:05.626Z,3.75
2019-01-27T06:37:05.230Z,3.75
2019-01-27T06:38:05.300Z,3.75
2019-01-27T06:39:06.000Z,3.75
2019-01-27T06:40:05.072Z,3.75
2019-01-27T06:41:05.309Z,3.75
2019-01-27T06:42:05.228Z,3.75
2019-01-27T06:43:05.433Z,3.75
2019-01-27T06:44:05.065Z,3.75
2019-01-27T06:45:05.548Z,3.75
2019-01-27T06:46:05.613Z,3.75
2019-01-27T06:47:05.839Z,3.75
2019-01-27T06:48:05.870Z,3.75
2019-01-27T06:49:05.483Z,3.75
2019-01-27T06:50:05.719Z,3.75
2019-01-27T06:51:05.312Z,3.75
2019-01-27T06:52:05.482Z,3.75
2019-01-27T06:53:05.697Z,3.75
2019-01-27T06:54:05.241Z,3.75
2019-01-27T06:55:05.199Z,3.75
2019-01-27T06:56:05.708Z,3.75
2019-01-27T06:57:05.794Z,3.75
2019-01-27T06:58:05.332Z,3.75
2019-01-27T06:59:05.695Z,3.75
2019-01-27T07:00:05.952Z,3.75
2019-01-27T07:01:05.366Z,3.75
2019-01-27T07:02:05.766Z,3.75
2019-01-27T07:03:05.917Z,3.75
2019-01-27T07:04:05.147Z,3.75
2019-01-27T07:05:05.365Z,3.75
2019-01-27T07:06:05.552Z,3.81
2019-01-27T07:07:05.447Z,3.75
2019-01-27T07:08:06.108Z,3.75
2019-01-27T07:09:05.203Z,3.81
2019-01-27T07:10:06.856Z,3.81
2019-01-27T07:11:05.208Z,3.75
2019-01-27T07:12:05.215Z,3.75
2019-01-27T07:13:05.510Z,3.75
2019-01-27T07:14:05.151Z,3.75
2019-01-27T07:15:05.228Z,3.81
2019-01-27T07:16:05.564Z,3.75
2019-01-27T07:17:05.527Z,3.75
2019-01-27T07:18:05.621Z,3.75
2019-01-27T07:19:05.113Z,3.75
2019-01-27T07:20:05.717Z,3.81
2019-01-27T07:21:05.673Z,3.75
2019-01-27T07:22:05.305Z,3.75
2019-01-27T07:23:05.854Z,3.75
2019-01-27T07:24:05.943Z,3.81
2019-01-27T07:25:05.723Z,3.81
2019-01-27T07:26:06.037Z,3.81
2019-01-27T07:27:05.364Z,3.81
2019-01-27T07:28:05.468Z,3.81
2019-01-27T07:29:05.140Z,3.75
2019-01-27T07:30:05.317Z,3.81
2019-01-27T07:31:05.292Z,3.81
2019-01-27T07:32:05.957Z,3.81
2019-01-27T07:33:05.959Z,3.81
2019-01-27T07:34:05.223Z,3.81
2019-01-27T07:35:05.538Z,3.81
2019-01-27T07:36:06.034Z,3.81
2019-01-27T07:37:06.012Z,3.81
2019-01-27T07:38:05.632Z,3.81
2019-01-27T07:39:05.931Z,3.81
2019-01-27T07:40:05.473Z,3.81
2019-01-27T07:41:05.445Z,3.81
2019-01-27T07:42:05.639Z,3.81
2019-01-27T07:43:05.686Z,3.81
2019-01-27T07:44:05.706Z,3.81
2019-01-27T07:45:05.155Z,3.81
2019-01-27T07:46:05.342Z,3.81
2019-01-27T07:47:05.855Z,3.81
2019-01-27T07:48:05.498Z,3.81
2019-01-27T07:49:05.628Z,3.81
2019-01-27T07:50:06.619Z,3.88
2019-01-27T07:51:08.650Z,3.81
2019-01-27T07:52:05.318Z,3.88
2019-01-27T07:53:05.698Z,3.88
2019-01-27T07:54:05.073Z,3.88
2019-01-27T07:55:05.690Z,3.88
2019-01-27T07:56:05.486Z,3.88
2019-01-27T07:57:05.402Z,3.88
2019-01-27T07:58:05.597Z,3.94
2019-01-27T07:59:05.040Z,3.94
2019-01-27T08:00:05.308Z,3.94
2019-01-27T08:01:05.535Z,3.94
2019-01-27T08:02:05.213Z,3.94
2019-01-27T08:03:11.717Z,3.94
2019-01-27T08:04:05.068Z,3.94
2019-01-27T08:05:05.618Z,4.00
2019-01-27T08:06:05.634Z,4.00
2019-01-27T08:07:05.825Z,4.00
2019-01-27T08:08:05.563Z,4.00
2019-01-27T08:09:05.644Z,4.00
2019-01-27T08:10:05.869Z,4.00
2019-01-27T08:11:05.311Z,4.00
2019-01-27T08:12:05.775Z,4.00
2019-01-27T08:13:05.123Z,4.06
2019-01-27T08:14:05.606Z,4.06
2019-01-27T08:15:05.930Z,4.06
2019-01-27T08:16:05.065Z,4.06
2019-01-27T08:17:05.611Z,4.06
2019-01-27T08:18:05.891Z,4.06
2019-01-27T08:19:05.070Z,4.06
2019-01-27T08:20:05.960Z,4.06
2019-01-27T08:21:05.366Z,4.06
2019-01-27T08:22:05.526Z,4.06
2019-01-27T08:23:05.795Z,4.06
2019-01-27T08:24:05.055Z,4.06
2019-01-27T08:25:05.221Z,4.12
2019-01-27T08:26:05.207Z,4.12
2019-01-27T08:27:05.537Z,4.12
2019-01-27T08:28:05.072Z,4.12
2019-01-27T08:29:05.711Z,4.12
2019-01-27T08:30:05.962Z,4.12
2019-01-27T08:31:05.844Z,4.12
2019-01-27T08:32:06.031Z,4.12
2019-01-27T08:33:05.554Z,4.12
2019-01-27T08:34:05.865Z,4.19
2019-01-27T08:35:05.062Z,4.19
2019-01-27T08:36:05.171Z,4.19
2019-01-27T08:37:05.692Z,4.19
2019-01-27T08:38:05.348Z,4.19
2019-01-27T08:39:05.786Z,4.19
2019-01-27T08:40:05.827Z,4.19
2019-01-27T08:41:06.100Z,4.19
2019-01-27T08:42:05.957Z,4.25
2019-01-27T08:43:05.518Z,4.25
2019-01-27T08:44:05.466Z,4.25
2019-01-27T08:45:05.863Z,4.25
2019-01-27T08:46:05.265Z,4.25
2019-01-27T08:47:05.294Z,4.25
2019-01-27T08:48:06.122Z,4.25
2019-01-27T08:49:05.228Z,4.31
2019-01-27T08:50:05.320Z,4.31
2019-01-27T08:51:05.686Z,4.31
2019-01-27T08:52:06.809Z,4.31
2019-01-27T08:53:05.118Z,4.31
2019-01-27T08:54:05.422Z,4.38
2019-01-27T08:55:05.455Z,4.38
2019-01-27T08:56:05.643Z,4.38
2019-01-27T08:57:05.519Z,4.38
2019-01-27T08:58:05.965Z,4.38
2019-01-27T08:59:06.013Z,4.38
2019-01-27T09:00:05.206Z,4.38
2019-01-27T09:01:05.350Z,4.44
2019-01-27T09:02:05.727Z,4.44
2019-01-27T09:03:05.758Z,4.44
2019-01-27T09:04:05.303Z,4.50
2019-01-27T09:05:06.037Z,4.50
2019-01-27T09:06:05.064Z,4.50
2019-01-27T09:07:05.365Z,4.56
2019-01-27T09:08:06.114Z,4.56
2019-01-27T09:09:05.535Z,4.62
2019-01-27T09:10:06.023Z,4.62
2019-01-27T09:11:05.300Z,4.69
2019-01-27T09:12:05.522Z,4.69
2019-01-27T09:13:11.134Z,4.75
2019-01-27T09:14:05.859Z,4.75
2019-01-27T09:15:05.231Z,4.81
2019-01-27T09:16:05.323Z,4.81
2019-01-27T09:17:05.786Z,4.81
2019-01-27T09:18:05.944Z,4.81
2019-01-27T09:19:05.271Z,4.81
2019-01-27T09:20:05.483Z,4.81
2019-01-27T09:21:05.936Z,4.81
2019-01-27T09:22:05.246Z,4.88
2019-01-27T09:23:05.608Z,4.88
2019-01-27T09:24:05.331Z,4.94
2019-01-27T09:25:05.366Z,4.94
2019-01-27T09:26:05.969Z,4.94
2019-01-27T09:27:05.315Z,4.94
2019-01-27T09:28:05.455Z,5.00
2019-01-27T09:29:05.900Z,5.00
2019-01-27T09:30:05.142Z,5.00
2019-01-27T09:31:05.536Z,5.00
2019-01-27T09:32:05.964Z,5.00
2019-01-27T09:33:05.146Z,5.06
2019-01-27T09:34:05.709Z,5.00
2019-01-27T09:35:05.700Z,5.00
2019-01-27T09:36:05.808Z,5.00
2019-01-27T09:37:05.452Z,5.00
2019-01-27T09:38:05.154Z,5.00
2019-01-27T09:39:05.767Z,5.00
2019-01-27T09:40:06.045Z,5.06
2019-01-27T09:41:05.215Z,5.06
2019-01-27T09:42:06.767Z,5.06
2019-01-27T09:43:05.781Z,5.06
2019-01-27T09:44:05.149Z,5.06
2019-01-27T09:45:05.225Z,5.06
2019-01-27T09:46:07.793Z,5.06
2019-01-27T09:47:05.865Z,5.06
2019-01-27T09:48:05.317Z,5.06
2019-01-27T09:49:06.019Z,5.06
2019-01-27T09:50:05.179Z,5.06
2019-01-27T09:51:05.471Z,5.12
2019-01-27T09:52:06.047Z,5.12
2019-01-27T09:53:05.457Z,5.19
2019-01-27T09:54:05.720Z,5.19
2019-01-27T09:55:05.854Z,5.25
2019-01-27T09:56:05.471Z,5.25
2019-01-27T09:57:05.389Z,5.31
2019-01-27T09:58:05.875Z,5.31
2019-01-27T09:59:05.603Z,5.38
2019-01-27T10:00:05.240Z,5.44
2019-01-27T10:01:05.253Z,5.44
2019-01-27T10:02:05.712Z,5.50
2019-01-27T10:03:05.376Z,5.50
2019-01-27T10:04:06.098Z,5.50
2019-01-27T10:05:05.712Z,5.50
2019-01-27T10:06:05.786Z,5.56
2019-01-27T10:07:05.363Z,5.56
2019-01-27T10:08:05.948Z,5.56
2019-01-27T10:09:05.552Z,5.56
2019-01-27T10:10:05.063Z,5.62
2019-01-27T10:11:05.294Z,5.62
2019-01-27T10:12:05.889Z,5.69
2019-01-27T10:13:05.792Z,5.69
2019-01-27T10:14:05.075Z,5.69
2019-01-27T10:15:05.354Z,5.69
2019-01-27T10:16:05.472Z,5.69
2019-01-27T10:17:05.903Z,5.69
2019-01-27T10:18:06.071Z,5.69
2019-01-27T10:19:05.483Z,5.75
2019-01-27T10:20:05.787Z,5.75
2019-01-27T10:21:05.195Z,5.75
2019-01-27T10:22:06.150Z,5.75
2019-01-27T10:23:06.094Z,5.81
2019-01-27T10:24:05.308Z,5.81
2019-01-27T10:25:05.769Z,5.88
2019-01-27T10:26:06.039Z,5.88
2019-01-27T10:27:06.001Z,5.94
2019-01-27T10:28:05.529Z,5.94
2019-01-27T10:29:05.755Z,6.00
2019-01-27T10:30:05.317Z,6.06
2019-01-27T10:31:05.949Z,6.06
2019-01-27T10:32:05.151Z,6.12
2019-01-27T10:33:05.150Z,6.19
2019-01-27T10:34:05.545Z,6.19
2019-01-27T10:35:05.652Z,6.25
2019-01-27T10:36:05.865Z,6.25
2019-01-27T10:37:11.735Z,6.31
2019-01-27T10:38:06.058Z,6.31
2019-01-27T10:39:06.010Z,6.31
2019-01-27T10:40:09.074Z,6.38
2019-01-27T10:41:05.883Z,6.38
2019-01-27T10:42:05.465Z,6.38
2019-01-27T10:43:05.137Z,6.38
2019-01-27T10:44:05.622Z,6.44
2019-01-27T10:45:05.123Z,6.44
2019-01-27T10:46:05.330Z,6.44
2019-01-27T10:47:05.862Z,6.44
2019-01-27T10:48:05.960Z,6.44
2019-01-27T10:49:05.549Z,6.50
2019-01-27T10:50:05.406Z,6.50
2019-01-27T10:51:05.799Z,6.50
2019-01-27T10:52:06.047Z,6.50
2019-01-27T10:53:05.074Z,6.50
2019-01-27T10:54:05.364Z,6.50
2019-01-27T10:55:05.648Z,6.44
2019-01-27T10:56:05.922Z,6.50
2019-01-27T10:57:05.203Z,6.50
2019-01-27T10:58:05.390Z,6.44
2019-01-27T10:59:05.874Z,6.44
2019-01-27T11:00:06.016Z,6.44
2019-01-27T11:01:05.392Z,6.44
2019-01-27T11:02:05.481Z,6.44
2019-01-27T11:03:05.871Z,6.44
2019-01-27T11:04:05.313Z,6.44
2019-01-27T11:05:05.816Z,6.44
2019-01-27T11:06:05.792Z,6.38
2019-01-27T11:07:05.221Z,6.38
2019-01-27T11:08:06.035Z,6.38
2019-01-27T11:09:05.847Z,6.38
2019-01-27T11:10:05.400Z,6.44
2019-01-27T11:11:05.449Z,6.44
2019-01-27T11:12:05.667Z,6.44
2019-01-27T11:13:05.146Z,6.44
2019-01-27T11:14:05.312Z,6.50
2019-01-27T11:15:05.681Z,6.50
2019-01-27T11:16:05.328Z,6.50
2019-01-27T11:17:05.683Z,6.50
2019-01-27T11:18:05.760Z,6.50
2019-01-27T11:19:06.081Z,6.50
2019-01-27T11:20:05.960Z,6.50
2019-01-27T11:21:05.377Z,6.56
2019-01-27T11:22:05.713Z,6.56
2019-01-27T11:23:05.356Z,6.56
2019-01-27T11:24:05.228Z,6.56
2019-01-27T11:25:05.453Z,6.56
2019-01-27T11:26:05.492Z,6.56
2019-01-27T11:27:05.919Z,6.56
2019-01-27T11:28:05.234Z,6.56
2019-01-27T11:29:05.241Z,6.56
2019-01-27T11:30:05.782Z,6.56
2019-01-27T11:31:05.056Z,6.56
2019-01-27T11:32:05.712Z,6.56
2019-01-27T11:33:05.186Z,6.56
2019-01-27T11:34:05.403Z,6.56
2019-01-27T11:35:05.676Z,6.62
2019-01-27T11:36:05.151Z,6.62
2019-01-27T11:37:05.438Z,6.62
2019-01-27T11:38:05.525Z,6.69
2019-01-27T11:39:05.854Z,6.69
2019-01-27T11:40:05.946Z,6.75
2019-01-27T11:41:05.567Z,6.75
2019-01-27T11:42:05.878Z,6.75
2019-01-27T11:43:05.854Z,6.81
2019-01-27T11:44:06.134Z,6.81
2019-01-27T11:45:05.042Z,6.81
2019-01-27T11:46:05.412Z,6.81
2019-01-27T11:47:05.792Z,6.81
2019-01-27T11:48:05.156Z,6.88
2019-01-27T11:49:05.843Z,6.88
2019-01-27T11:50:05.456Z,6.88
2019-01-27T11:51:10.203Z,6.94
2019-01-27T11:52:05.795Z,6.94
2019-01-27T11:53:05.632Z,6.94
2019-01-27T11:54:10.699Z,6.94
2019-01-27T11:55:05.854Z,6.94
2019-01-27T11:56:05.481Z,6.94
2019-01-27T11:57:06.247Z,7.00
2019-01-27T11:58:05.161Z,7.00
2019-01-27T11:59:05.551Z,7.00
2019-01-27T12:00:05.640Z,7.00
2019-01-27T12:01:05.144Z,7.00
2019-01-27T12:02:05.146Z,7.06
2019-01-27T12:03:05.704Z,7.06
2019-01-27T12:04:05.766Z,7.12
2019-01-27T12:05:06.022Z,7.12
2019-01-27T12:06:05.134Z,7.19
2019-01-27T12:07:05.547Z,7.19
2019-01-27T12:08:05.641Z,7.19
2019-01-27T12:09:05.154Z,7.25
2019-01-27T12:10:05.304Z,7.25
2019-01-27T12:11:05.699Z,7.31
2019-01-27T12:12:05.789Z,7.31
2019-01-27T12:13:05.061Z,7.38
2019-01-27T12:14:05.322Z,7.38
2019-01-27T12:15:05.613Z,7.44
2019-01-27T12:16:05.222Z,7.44
2019-01-27T12:17:05.845Z,7.50
2019-01-27T12:18:06.031Z,7.50
2019-01-27T12:19:05.151Z,7.56
2019-01-27T12:20:05.720Z,7.56
2019-01-27T12:21:05.527Z,7.62
2019-01-27T12:22:05.546Z,7.62
2019-01-27T12:23:05.078Z,7.62
2019-01-27T12:24:05.467Z,7.62
2019-01-27T12:25:06.024Z,7.69
2019-01-27T12:26:05.568Z,7.69
2019-01-27T12:27:05.543Z,7.69
2019-01-27T12:28:05.627Z,7.69
2019-01-27T12:29:05.139Z,7.69
2019-01-27T12:30:05.141Z,7.69
2019-01-27T12:31:05.398Z,7.69
2019-01-27T12:32:05.596Z,7.69
2019-01-27T12:33:05.839Z,7.69
2019-01-27T12:34:05.309Z,7.69
2019-01-27T12:35:05.859Z,7.69
2019-01-27T12:36:05.491Z,7.69
2019-01-27T12:37:05.530Z,7.69
2019-01-27T12:38:05.480Z,7.69
2019-01-27T12:39:05.939Z,7.69
2019-01-27T12:40:05.475Z,7.69
2019-01-27T12:41:05.460Z,7.75
2019-01-27T12:42:05.446Z,7.69
2019-01-27T12:43:05.756Z,7.75
2019-01-27T12:44:05.152Z,7.75
2019-01-27T12:45:06.033Z,7.75
2019-01-27T12:46:05.867Z,7.81
2019-01-27T12:47:05.393Z,7.81
2019-01-27T12:48:05.376Z,7.81
2019-01-27T12:49:05.533Z,7.81
2019-01-27T12:50:06.026Z,7.88
2019-01-27T12:51:05.373Z,7.81
2019-01-27T12:52:05.482Z,7.88
2019-01-27T12:53:05.638Z,7.88
2019-01-27T12:54:05.480Z,7.88
2019-01-27T12:55:05.771Z,7.88
2019-01-27T12:56:05.397Z,7.88
2019-01-27T12:57:05.711Z,7.94
2019-01-27T12:58:05.813Z,7.94
2019-01-27T12:59:05.392Z,7.88
2019-01-27T13:00:05.474Z,7.88
2019-01-27T13:01:06.007Z,7.88
2019-01-27T13:02:05.634Z,7.88
2019-01-27T13:03:05.707Z,7.88
2019-01-27T13:04:05.171Z,7.88
2019-01-27T13:05:05.128Z,7.94
2019-01-27T13:06:05.239Z,7.88
2019-01-27T13:07:05.451Z,7.88
2019-01-27T13:08:05.642Z,7.88
2019-01-27T13:09:05.790Z,7.94
2019-01-27T13:10:05.151Z,7.94
2019-01-27T13:11:05.764Z,7.94
2019-01-27T13:12:05.387Z,7.94
2019-01-27T13:13:05.862Z,7.94
2019-01-27T13:14:06.123Z,7.94
2019-01-27T13:15:06.032Z,8.00
2019-01-27T13:16:05.228Z,7.94
2019-01-27T13:17:07.479Z,7.94
2019-01-27T13:18:06.192Z,8.00